Aviation Digital Data Service (ADDS)

Output produced by METARs form (2202 UTC 31 March 2015)
found at http://aviationweather.gov/adds/metars/
 
KCON 311720Z 3118/0118 29009G17KT P6SM FEW050 SCT250 
     FM010000 34005KT P6SM SCT200 
     FM011200 32012KT P6SM SKC